createdAt,value
2023-11-12T00:00:33.187Z,23.74
2023-11-12T00:02:59.712Z,23.70
2023-11-12T00:05:26.145Z,23.63
2023-11-12T00:07:53.532Z,23.67
2023-11-12T00:10:21.199Z,23.61
2023-11-12T00:12:47.575Z,23.59
2023-11-12T00:15:14.040Z,23.57
2023-11-12T00:17:43.184Z,23.55
2023-11-12T00:20:13.661Z,23.55
2023-11-12T00:22:44.906Z,23.48
2023-11-12T00:25:13.658Z,23.53
2023-11-12T00:27:42.828Z,23.50
2023-11-12T00:30:10.031Z,23.51
2023-11-12T00:32:36.585Z,23.49
2023-11-12T00:35:03.167Z,23.44
2023-11-12T00:37:29.943Z,23.43
2023-11-12T00:39:56.304Z,23.39
2023-11-12T00:42:22.727Z,23.34
2023-11-12T00:44:49.087Z,23.31
2023-11-12T00:47:15.493Z,23.28
2023-11-12T00:49:42.087Z,23.23
2023-11-12T00:52:09.850Z,23.22
2023-11-12T00:54:37.406Z,23.19
2023-11-12T00:57:03.820Z,23.18
2023-11-12T00:59:30.172Z,23.17
2023-11-12T01:01:56.855Z,23.13
2023-11-12T01:04:24.327Z,23.10
2023-11-12T01:06:50.875Z,23.07
2023-11-12T01:09:17.247Z,23.05
2023-11-12T01:11:43.614Z,23.02
2023-11-12T01:14:10.122Z,23.01
2023-11-12T01:16:38.878Z,22.99
2023-11-12T01:19:06.345Z,22.96
2023-11-12T01:21:32.806Z,22.96
2023-11-12T01:23:59.215Z,22.92
2023-11-12T01:26:25.599Z,22.90
2023-11-12T01:28:51.978Z,22.87
2023-11-12T01:31:18.326Z,22.85
2023-11-12T01:33:45.933Z,22.81
2023-11-12T01:36:12.721Z,22.80
2023-11-12T01:38:39.104Z,22.74
2023-11-12T01:41:05.840Z,22.71
2023-11-12T01:43:32.443Z,22.68
2023-11-12T01:45:58.975Z,22.66
2023-11-12T01:48:25.520Z,22.61
2023-11-12T01:50:51.945Z,22.60
2023-11-12T01:53:18.302Z,22.55
2023-11-12T01:55:46.573Z,22.54
2023-11-12T01:58:13.028Z,22.50
2023-11-12T02:00:42.439Z,22.48
2023-11-12T02:03:10.250Z,22.45
2023-11-12T02:05:36.900Z,22.44
2023-11-12T02:08:06.288Z,22.42
2023-11-12T02:10:40.291Z,22.40
2023-11-12T02:13:07.858Z,22.36
2023-11-12T02:15:34.421Z,22.34
2023-11-12T02:18:00.944Z,22.32
2023-11-12T02:20:28.218Z,22.35
2023-11-12T02:22:54.701Z,22.32
2023-11-12T02:25:21.132Z,22.29
2023-11-12T02:27:47.477Z,22.26
2023-11-12T02:30:14.159Z,22.26
2023-11-12T02:32:41.938Z,22.23
2023-11-12T02:35:09.102Z,22.23
2023-11-12T02:37:36.593Z,22.16
2023-11-12T02:40:03.625Z,22.13
2023-11-12T02:42:30.722Z,22.12
2023-11-12T02:45:00.927Z,22.09
2023-11-12T02:47:28.203Z,22.07
2023-11-12T02:49:57.673Z,22.07
2023-11-12T02:52:24.052Z,22.02
2023-11-12T02:54:50.410Z,22.00
2023-11-12T02:57:16.876Z,21.99
2023-11-12T02:59:43.303Z,21.98
2023-11-12T03:02:10.185Z,21.95
2023-11-12T03:04:36.547Z,21.92
2023-11-12T03:07:02.931Z,21.90
2023-11-12T03:09:29.846Z,21.88
2023-11-12T03:11:56.403Z,21.87
2023-11-12T03:14:22.924Z,21.84
2023-11-12T03:16:50.292Z,21.85
2023-11-12T03:19:16.685Z,21.82
2023-11-12T03:21:43.139Z,21.81
2023-11-12T03:24:12.277Z,21.78
2023-11-12T03:26:38.685Z,21.77
2023-11-12T03:29:05.265Z,21.77
2023-11-12T03:31:31.695Z,21.74
2023-11-12T03:33:58.082Z,21.73
2023-11-12T03:36:25.196Z,21.71
2023-11-12T03:38:51.637Z,21.68
2023-11-12T03:41:18.021Z,21.63
2023-11-12T03:43:44.463Z,21.62
2023-11-12T03:46:10.893Z,21.61
2023-11-12T03:48:37.392Z,21.58
2023-11-12T03:51:03.923Z,21.55
2023-11-12T03:53:30.294Z,21.55
2023-11-12T03:55:56.661Z,21.53
2023-11-12T03:58:23.044Z,21.51
2023-11-12T04:00:49.427Z,21.48
2023-11-12T04:03:16.399Z,21.47
2023-11-12T04:05:43.063Z,21.44
2023-11-12T04:08:10.076Z,21.44
2023-11-12T04:10:36.451Z,21.42
2023-11-12T04:13:03.588Z,21.39
2023-11-12T04:15:30.347Z,21.40
2023-11-12T04:17:56.746Z,21.33
2023-11-12T04:20:29.019Z,21.38
2023-11-12T04:22:56.030Z,21.37
2023-11-12T04:25:22.404Z,21.37
2023-11-12T04:27:48.768Z,21.34
2023-11-12T04:30:15.215Z,21.34
2023-11-12T04:32:41.927Z,21.33
2023-11-12T04:35:08.569Z,21.32
2023-11-12T04:37:35.423Z,21.28
2023-11-12T04:40:01.818Z,21.27
2023-11-12T04:42:28.199Z,21.24
2023-11-12T04:44:55.796Z,21.22
2023-11-12T04:47:22.173Z,21.19
2023-11-12T04:49:48.556Z,21.19
2023-11-12T04:52:14.925Z,21.17
2023-11-12T04:54:41.398Z,21.15
2023-11-12T04:57:07.854Z,21.14
2023-11-12T04:59:34.286Z,21.12
2023-11-12T05:02:00.847Z,21.11
2023-11-12T05:04:27.344Z,21.09
2023-11-12T05:06:53.726Z,21.07
2023-11-12T05:09:20.128Z,21.07
2023-11-12T05:11:46.601Z,21.04
2023-11-12T05:14:12.970Z,21.05
2023-11-12T05:16:41.584Z,21.05
2023-11-12T05:19:07.943Z,21.04
2023-11-12T05:21:34.380Z,21.03
2023-11-12T05:24:00.755Z,21.02
2023-11-12T05:26:27.122Z,21.01
2023-11-12T05:28:53.501Z,21.01
2023-11-12T05:31:19.920Z,21.00
2023-11-12T05:33:46.450Z,20.98
2023-11-12T05:36:12.961Z,20.96
2023-11-12T05:38:39.492Z,20.93
2023-11-12T05:41:05.868Z,20.91
2023-11-12T05:43:32.233Z,20.91
2023-11-12T05:45:58.666Z,20.88
2023-11-12T05:48:25.067Z,20.87
2023-11-12T05:50:51.481Z,20.81
2023-11-12T05:53:17.915Z,20.80
2023-11-12T05:55:44.287Z,20.80
2023-11-12T05:58:10.716Z,20.80
2023-11-12T06:00:37.501Z,20.79
2023-11-12T06:03:04.010Z,20.79
2023-11-12T06:05:30.430Z,20.83
2023-11-12T06:07:56.780Z,20.85
2023-11-12T06:10:24.406Z,20.88
2023-11-12T06:12:50.782Z,20.88
2023-11-12T06:15:17.572Z,20.90
2023-11-12T06:17:44.024Z,20.92
2023-11-12T06:20:10.599Z,20.93
2023-11-12T06:22:36.976Z,20.94
2023-11-12T06:25:03.709Z,20.95
2023-11-12T06:27:30.167Z,20.94
2023-11-12T06:29:56.538Z,20.93
2023-11-12T06:32:22.987Z,20.95
2023-11-12T06:34:49.717Z,20.93
2023-11-12T06:37:16.580Z,20.93
2023-11-12T06:39:43.003Z,20.92
2023-11-12T06:42:10.146Z,20.90
2023-11-12T06:44:39.321Z,20.89
2023-11-12T06:47:05.851Z,20.89
2023-11-12T06:49:33.322Z,20.88
2023-11-12T06:52:00.043Z,20.88
2023-11-12T06:54:27.564Z,20.87
2023-11-12T06:56:57.233Z,20.88
2023-11-12T06:59:24.086Z,20.90
2023-11-12T07:01:50.471Z,20.93
2023-11-12T07:04:16.937Z,20.95
2023-11-12T07:06:50.287Z,20.97
2023-11-12T07:09:20.496Z,20.97
2023-11-12T07:11:46.847Z,20.97
2023-11-12T07:14:13.280Z,20.97
2023-11-12T07:16:39.976Z,20.95
2023-11-12T07:19:06.518Z,20.96
2023-11-12T07:21:32.948Z,20.96
2023-11-12T07:24:00.227Z,20.94
2023-11-12T07:26:26.976Z,20.95
2023-11-12T07:28:53.819Z,20.94
2023-11-12T07:31:23.126Z,20.93
2023-11-12T07:33:49.933Z,20.91
2023-11-12T07:36:16.501Z,20.92
2023-11-12T07:38:42.885Z,20.92
2023-11-12T07:41:09.375Z,20.92
2023-11-12T07:43:36.872Z,20.93
2023-11-12T07:46:04.151Z,20.95
2023-11-12T07:48:31.050Z,20.97
2023-11-12T07:51:00.756Z,20.97
2023-11-12T07:53:27.229Z,21.04
2023-11-12T07:55:53.803Z,20.88
2023-11-12T07:58:20.379Z,20.68
2023-11-12T08:00:46.800Z,20.57
2023-11-12T08:03:13.239Z,20.53
2023-11-12T08:05:39.673Z,20.51
2023-11-12T08:08:06.024Z,20.47
2023-11-12T08:10:32.492Z,20.41
2023-11-12T08:12:59.369Z,20.39
2023-11-12T08:15:25.803Z,20.26
2023-11-12T08:17:52.194Z,20.39
2023-11-12T08:20:19.270Z,20.45
2023-11-12T08:22:47.756Z,20.49
2023-11-12T08:25:14.117Z,20.51
2023-11-12T08:27:40.576Z,20.54
2023-11-12T08:30:07.215Z,20.57
2023-11-12T08:32:36.142Z,20.50
2023-11-12T08:35:02.654Z,20.53
2023-11-12T08:37:29.248Z,20.47
2023-11-12T08:39:55.727Z,20.43
2023-11-12T08:42:22.169Z,20.40
2023-11-12T08:44:48.557Z,20.38
2023-11-12T08:47:14.973Z,20.45
2023-11-12T08:49:41.338Z,20.27
2023-11-12T08:52:07.787Z,20.15
2023-11-12T08:54:35.584Z,20.08
2023-11-12T08:57:04.381Z,20.06
2023-11-12T08:59:31.481Z,20.15
2023-11-12T09:01:57.878Z,20.22
2023-11-12T09:04:24.709Z,20.26
2023-11-12T09:06:51.188Z,20.35
2023-11-12T09:09:18.796Z,20.50
2023-11-12T09:11:45.254Z,20.68
2023-11-12T09:14:13.407Z,20.75
2023-11-12T09:16:43.711Z,20.76
2023-11-12T09:19:10.476Z,20.84
2023-11-12T09:21:37.397Z,20.72
2023-11-12T09:24:04.037Z,20.73
2023-11-12T09:26:30.487Z,20.79
2023-11-12T09:28:56.881Z,20.76
2023-11-12T09:31:23.375Z,20.72
2023-11-12T09:33:50.162Z,20.68
2023-11-12T09:36:18.531Z,20.70
2023-11-12T09:38:45.068Z,20.70
2023-11-12T09:41:11.503Z,20.72
2023-11-12T09:43:37.890Z,20.74
2023-11-12T09:46:07.794Z,20.75
2023-11-12T09:48:40.233Z,20.82
2023-11-12T09:51:07.119Z,20.84
2023-11-12T09:53:35.158Z,20.84
2023-11-12T09:56:09.596Z,20.85
2023-11-12T09:58:37.102Z,20.83
2023-11-12T10:01:03.598Z,20.88
2023-11-12T10:03:30.366Z,20.84
2023-11-12T10:05:56.759Z,20.80
2023-11-12T10:08:23.610Z,20.81
2023-11-12T10:10:50.051Z,20.82
2023-11-12T10:13:16.449Z,20.82
2023-11-12T10:15:42.923Z,20.81
2023-11-12T10:18:11.051Z,20.82
2023-11-12T10:20:39.963Z,20.84
2023-11-12T10:23:07.633Z,20.88
2023-11-12T10:25:40.635Z,20.90
2023-11-12T10:28:10.147Z,20.94
2023-11-12T10:30:38.927Z,20.91
2023-11-12T10:33:18.585Z,20.89
2023-11-12T10:35:45.191Z,20.87
2023-11-12T10:38:13.969Z,20.86
2023-11-12T10:40:46.055Z,20.86
2023-11-12T10:43:12.472Z,20.85
2023-11-12T10:45:42.337Z,20.83
2023-11-12T10:48:10.481Z,20.81
2023-11-12T10:50:37.567Z,20.80
2023-11-12T10:53:05.299Z,20.78
2023-11-12T10:55:31.678Z,20.78
2023-11-12T10:57:58.558Z,20.75
2023-11-12T11:00:25.040Z,20.74
2023-11-12T11:02:51.507Z,20.73
2023-11-12T11:05:17.933Z,20.76
2023-11-12T11:07:44.860Z,20.79
2023-11-12T11:10:12.171Z,20.84
2023-11-12T11:12:38.632Z,20.90
2023-11-12T11:15:23.740Z,21.00
2023-11-12T11:17:50.207Z,21.11
2023-11-12T11:20:17.748Z,21.23
2023-11-12T11:22:45.630Z,21.26
2023-11-12T11:25:22.863Z,21.29
2023-11-12T11:27:51.391Z,21.28
2023-11-12T11:30:17.784Z,21.19
2023-11-12T11:32:55.689Z,21.25
2023-11-12T11:35:22.754Z,21.16
2023-11-12T11:38:18.048Z,21.17
2023-11-12T11:40:45.974Z,21.17
2023-11-12T11:43:24.573Z,21.25
2023-11-12T11:46:06.277Z,21.46
2023-11-12T11:48:33.040Z,21.57
2023-11-12T11:51:00.766Z,21.59
2023-11-12T11:53:28.971Z,21.57
2023-11-12T11:56:04.796Z,21.49
2023-11-12T11:58:35.547Z,21.42
2023-11-12T12:01:01.964Z,21.48
2023-11-12T12:03:29.894Z,21.47
2023-11-12T12:05:56.626Z,21.47
2023-11-12T12:08:23.013Z,21.46
2023-11-12T12:10:49.508Z,21.46
2023-11-12T12:13:16.497Z,21.48
2023-11-12T12:15:46.209Z,21.49
2023-11-12T12:18:23.971Z,21.47
2023-11-12T12:20:52.268Z,21.46
2023-11-12T12:23:18.906Z,21.40
2023-11-12T12:25:49.341Z,21.29
2023-11-12T12:28:20.761Z,21.27
2023-11-12T12:30:53.680Z,21.22
2023-11-12T12:33:20.098Z,21.20
2023-11-12T12:35:46.962Z,21.22
2023-11-12T12:38:13.512Z,21.21
2023-11-12T12:40:40.027Z,21.19
2023-11-12T12:43:11.479Z,21.16
2023-11-12T12:45:37.906Z,21.14
2023-11-12T12:48:14.717Z,21.13
2023-11-12T12:50:41.119Z,21.11
2023-11-12T12:53:18.996Z,21.09
2023-11-12T12:55:45.577Z,21.06
2023-11-12T12:58:12.346Z,21.04
2023-11-12T13:00:39.703Z,21.03
2023-11-12T13:03:22.119Z,21.05
2023-11-12T13:05:48.663Z,21.06
2023-11-12T13:08:15.041Z,21.08
2023-11-12T13:10:41.600Z,21.04
2023-11-12T13:13:08.074Z,21.09
2023-11-12T13:15:34.480Z,21.10
2023-11-12T13:18:01.238Z,21.09
2023-11-12T13:20:27.720Z,21.09
2023-11-12T13:22:54.257Z,21.08
2023-11-12T13:25:20.636Z,21.08
2023-11-12T13:27:47.163Z,21.08
2023-11-12T13:30:13.628Z,21.07
2023-11-12T13:32:41.362Z,21.08
2023-11-12T13:35:09.141Z,21.08
2023-11-12T13:37:36.041Z,21.07
2023-11-12T13:40:06.812Z,21.07
2023-11-12T13:42:36.703Z,21.05
2023-11-12T13:45:07.655Z,21.04
2023-11-12T13:47:34.052Z,21.04
2023-11-12T13:50:00.621Z,21.03
2023-11-12T13:52:28.352Z,21.01
2023-11-12T13:54:54.867Z,20.97
2023-11-12T13:57:21.281Z,20.98
2023-11-12T13:59:47.687Z,20.98
2023-11-12T14:02:14.077Z,21.00
2023-11-12T14:04:40.520Z,21.01
2023-11-12T14:07:07.189Z,21.02
2023-11-12T14:09:35.368Z,21.01
2023-11-12T14:12:08.747Z,21.00
2023-11-12T14:14:35.361Z,20.98
2023-11-12T14:17:07.938Z,20.96
2023-11-12T14:19:36.839Z,20.95
2023-11-12T14:22:05.155Z,20.94
2023-11-12T14:24:31.961Z,20.91
2023-11-12T14:26:58.564Z,20.92
2023-11-12T14:29:26.716Z,20.91
2023-11-12T14:31:53.240Z,20.90
2023-11-12T14:34:19.853Z,20.91
2023-11-12T14:36:46.569Z,20.92
2023-11-12T14:39:19.063Z,20.92
2023-11-12T14:41:46.252Z,20.95
2023-11-12T14:44:12.603Z,20.94
2023-11-12T14:46:39.746Z,20.95
2023-11-12T14:49:06.845Z,20.96
2023-11-12T14:51:34.469Z,20.97
2023-11-12T14:54:05.612Z,20.94
2023-11-12T14:56:37.532Z,20.91
2023-11-12T14:59:05.091Z,20.90
2023-11-12T15:01:31.810Z,20.88
2023-11-12T15:03:58.303Z,20.87
2023-11-12T15:06:24.771Z,20.89
2023-11-12T15:08:51.166Z,20.92
2023-11-12T15:11:17.527Z,20.96
2023-11-12T15:13:44.451Z,20.93
2023-11-12T15:16:11.246Z,20.97
2023-11-12T15:18:37.705Z,21.04
2023-11-12T15:21:04.783Z,21.06
2023-11-12T15:23:34.221Z,21.01
2023-11-12T15:26:00.652Z,21.02
2023-11-12T15:28:29.886Z,20.97
2023-11-12T15:30:56.947Z,20.97
2023-11-12T15:33:24.113Z,20.97
2023-11-12T15:35:50.681Z,20.94
2023-11-12T15:38:17.060Z,20.93
2023-11-12T15:40:45.445Z,20.91
2023-11-12T15:43:11.857Z,20.91
2023-11-12T15:45:38.231Z,20.88
2023-11-12T15:48:04.814Z,20.86
2023-11-12T15:50:31.421Z,20.82
2023-11-12T15:52:58.580Z,20.87
2023-11-12T15:55:25.160Z,20.83
2023-11-12T15:57:51.706Z,20.83
2023-11-12T16:00:21.095Z,20.81
2023-11-12T16:02:47.973Z,20.79
2023-11-12T16:05:14.648Z,20.85
2023-11-12T16:07:41.335Z,20.83
2023-11-12T16:10:08.624Z,20.81
2023-11-12T16:12:35.108Z,20.81
2023-11-12T16:15:06.512Z,20.81
2023-11-12T16:17:33.129Z,20.86
2023-11-12T16:20:05.741Z,20.93
2023-11-12T16:22:34.695Z,21.05
2023-11-12T16:25:05.231Z,21.10
2023-11-12T16:27:32.125Z,21.23
2023-11-12T16:29:58.745Z,21.26
2023-11-12T16:32:25.353Z,21.27
2023-11-12T16:34:55.097Z,21.21
2023-11-12T16:37:21.461Z,21.23
2023-11-12T16:39:48.544Z,21.26
2023-11-12T16:42:15.341Z,21.33
2023-11-12T16:44:42.333Z,21.41
2023-11-12T16:47:08.989Z,21.50
2023-11-12T16:49:36.751Z,21.66
2023-11-12T16:52:03.573Z,21.71
2023-11-12T16:54:30.084Z,21.82
2023-11-12T16:56:58.846Z,21.88
2023-11-12T16:59:25.934Z,21.88
2023-11-12T17:01:52.379Z,21.97
2023-11-12T17:04:18.858Z,21.99
2023-11-12T17:06:46.727Z,22.06
2023-11-12T17:09:14.311Z,22.23
2023-11-12T17:11:40.681Z,22.33
2023-11-12T17:14:08.540Z,22.38
2023-11-12T17:16:39.065Z,22.45
2023-11-12T17:19:05.615Z,22.54
2023-11-12T17:21:33.853Z,22.59
2023-11-12T17:24:05.068Z,22.65
2023-11-12T17:26:31.507Z,22.71
2023-11-12T17:28:59.153Z,22.77
2023-11-12T17:31:25.726Z,22.89
2023-11-12T17:33:56.101Z,23.03
2023-11-12T17:36:23.233Z,23.23
2023-11-12T17:38:50.405Z,23.24
2023-11-12T17:41:17.795Z,23.33
2023-11-12T17:43:46.996Z,23.43
2023-11-12T17:46:14.623Z,23.50
2023-11-12T17:48:44.075Z,23.55
2023-11-12T17:51:10.979Z,23.58
2023-11-12T17:53:37.642Z,23.63
2023-11-12T17:56:04.198Z,23.66
2023-11-12T17:58:30.796Z,23.67
2023-11-12T18:00:59.367Z,23.68
2023-11-12T18:03:28.497Z,23.72
2023-11-12T18:05:54.973Z,23.73
2023-11-12T18:08:21.692Z,23.76
2023-11-12T18:10:48.273Z,23.76
2023-11-12T18:13:16.486Z,23.73
2023-11-12T18:15:44.694Z,23.74
2023-11-12T18:18:12.227Z,23.77
2023-11-12T18:20:39.053Z,23.73
2023-11-12T18:23:06.348Z,23.76
2023-11-12T18:25:34.450Z,23.79
2023-11-12T18:28:01.280Z,23.74
2023-11-12T18:30:28.500Z,23.72
2023-11-12T18:32:54.892Z,23.76
2023-11-12T18:35:22.201Z,23.74
2023-11-12T18:37:51.751Z,23.81
2023-11-12T18:40:20.164Z,23.74
2023-11-12T18:42:46.607Z,23.79
2023-11-12T18:45:17.726Z,23.71
2023-11-12T18:47:45.105Z,23.74
2023-11-12T18:50:11.757Z,23.74
2023-11-12T18:52:38.892Z,23.76
2023-11-12T18:55:08.997Z,23.84
2023-11-12T18:57:35.500Z,23.72
2023-11-12T19:00:07.627Z,23.61
2023-11-12T19:02:35.281Z,23.72
2023-11-12T19:05:04.131Z,23.73
2023-11-12T19:07:31.037Z,23.73
2023-11-12T19:09:57.432Z,23.74
2023-11-12T19:12:23.813Z,23.73
2023-11-12T19:14:50.170Z,23.74
2023-11-12T19:17:16.705Z,23.78
2023-11-12T19:19:43.116Z,23.76
2023-11-12T19:22:09.629Z,23.79
2023-11-12T19:24:37.428Z,23.78
2023-11-12T19:27:04.608Z,23.82
2023-11-12T19:29:31.663Z,23.79
2023-11-12T19:31:58.207Z,23.74
2023-11-12T19:34:27.238Z,23.73
2023-11-12T19:36:53.823Z,23.72
2023-11-12T19:39:20.841Z,23.80
2023-11-12T19:41:47.641Z,23.78
2023-11-12T19:44:14.136Z,23.73
2023-11-12T19:46:43.603Z,23.75
2023-11-12T19:49:10.034Z,23.69
2023-11-12T19:51:36.758Z,23.64
2023-11-12T19:54:04.597Z,23.69
2023-11-12T19:56:31.164Z,23.58
2023-11-12T19:59:01.200Z,23.65
2023-11-12T20:01:30.450Z,23.64
2023-11-12T20:03:57.224Z,23.63
2023-11-12T20:06:23.911Z,23.63
2023-11-12T20:08:50.306Z,23.46
2023-11-12T20:11:17.984Z,23.47
2023-11-12T20:13:45.541Z,23.47
2023-11-12T20:16:15.644Z,23.48
2023-11-12T20:18:45.161Z,23.50
2023-11-12T20:21:11.601Z,23.50
2023-11-12T20:23:40.897Z,23.47
2023-11-12T20:26:07.386Z,23.43
2023-11-12T20:28:34.112Z,23.45
2023-11-12T20:31:00.795Z,23.53
2023-11-12T20:33:27.597Z,23.61
2023-11-12T20:35:54.346Z,23.73
2023-11-12T20:38:20.852Z,23.83
2023-11-12T20:40:47.242Z,23.98
2023-11-12T20:43:14.276Z,24.06
2023-11-12T20:45:41.463Z,24.11
2023-11-12T20:48:07.999Z,24.17
2023-11-12T20:50:38.759Z,24.27
2023-11-12T20:53:07.293Z,24.35
2023-11-12T20:55:33.669Z,24.42
2023-11-12T20:58:00.076Z,24.45
2023-11-12T21:00:28.602Z,24.53
2023-11-12T21:02:55.040Z,24.53
2023-11-12T21:05:21.866Z,24.57
2023-11-12T21:07:48.578Z,24.67
2023-11-12T21:10:15.168Z,24.68
2023-11-12T21:12:41.576Z,24.71
2023-11-12T21:15:10.622Z,24.76
2023-11-12T21:17:37.025Z,24.77
2023-11-12T21:20:04.174Z,24.83
2023-11-12T21:22:30.647Z,24.85
2023-11-12T21:24:57.142Z,24.87
2023-11-12T21:27:23.534Z,24.87
2023-11-12T21:29:49.897Z,24.95
2023-11-12T21:32:16.321Z,24.88
2023-11-12T21:34:42.692Z,24.87
2023-11-12T21:37:09.166Z,24.84
2023-11-12T21:39:38.561Z,24.81
2023-11-12T21:42:06.346Z,24.83
2023-11-12T21:44:32.834Z,24.81
2023-11-12T21:46:59.926Z,24.81
2023-11-12T21:49:28.005Z,24.80
2023-11-12T21:51:56.470Z,24.80
2023-11-12T21:54:24.099Z,24.80
2023-11-12T21:56:51.573Z,24.78
2023-11-12T21:59:21.263Z,24.76
2023-11-12T22:01:56.955Z,24.78
2023-11-12T22:04:25.893Z,24.72
2023-11-12T22:06:52.378Z,24.70
2023-11-12T22:09:18.810Z,24.69
2023-11-12T22:11:45.659Z,24.65
2023-11-12T22:14:12.330Z,24.63
2023-11-12T22:16:39.028Z,24.61
2023-11-12T22:19:07.811Z,24.60
2023-11-12T22:21:34.939Z,24.57
2023-11-12T22:24:01.634Z,24.57
2023-11-12T22:26:29.354Z,24.53
2023-11-12T22:28:56.139Z,24.51
2023-11-12T22:31:22.877Z,24.47
2023-11-12T22:33:49.392Z,24.47
2023-11-12T22:36:15.791Z,24.49
2023-11-12T22:38:42.191Z,24.50
2023-11-12T22:41:08.685Z,24.45
2023-11-12T22:43:35.099Z,24.44
2023-11-12T22:46:01.626Z,24.44
2023-11-12T22:48:28.056Z,24.42
2023-11-12T22:50:54.437Z,24.40
2023-11-12T22:53:23.485Z,24.39
2023-11-12T22:55:51.024Z,24.41
2023-11-12T22:58:17.612Z,24.32
2023-11-12T23:00:48.152Z,24.23
2023-11-12T23:03:16.180Z,24.28
2023-11-12T23:05:42.907Z,24.23
2023-11-12T23:08:09.494Z,24.22
2023-11-12T23:10:36.096Z,24.18
2023-11-12T23:13:02.804Z,24.15
2023-11-12T23:15:29.194Z,24.12
2023-11-12T23:17:55.591Z,24.10
2023-11-12T23:20:22.646Z,24.07
2023-11-12T23:22:49.115Z,24.05
2023-11-12T23:25:16.781Z,24.06
2023-11-12T23:27:43.227Z,24.02
2023-11-12T23:30:09.874Z,24.03
2023-11-12T23:32:37.091Z,24.02
2023-11-12T23:35:04.074Z,24.03
2023-11-12T23:37:30.443Z,24.03
2023-11-12T23:39:56.955Z,24.01
2023-11-12T23:42:24.087Z,24.01
2023-11-12T23:44:50.849Z,24.00
2023-11-12T23:47:17.241Z,23.97
2023-11-12T23:49:43.643Z,23.95
2023-11-12T23:52:11.532Z,23.93
2023-11-12T23:54:38.938Z,23.84
2023-11-12T23:57:05.314Z,23.73
2023-11-12T23:59:32.728Z,23.59
